createdAt,value
2023-01-12T00:01:54.681Z,97967.56
2023-01-12T00:04:21.525Z,97946.72
2023-01-12T00:06:48.634Z,97946.84
2023-01-12T00:09:15.412Z,97950.34
2023-01-12T00:11:42.185Z,97940.09
2023-01-12T00:14:09.956Z,97948.78
2023-01-12T00:16:37.956Z,97947.97
2023-01-12T00:19:16.937Z,97956.56
2023-01-12T00:22:04.027Z,97962.56
2023-01-12T00:24:52.440Z,97954.59
2023-01-12T00:27:21.720Z,97950.25
2023-01-12T00:29:49.791Z,97953.78
2023-01-12T00:32:19.835Z,97962.47
2023-01-12T00:34:46.706Z,97958.94
2023-01-12T00:37:14.082Z,97959.13
2023-01-12T00:39:45.867Z,97949.88
2023-01-12T00:42:34.712Z,97967.16
2023-01-12T00:45:20.157Z,97960.34
2023-01-12T00:47:46.902Z,97953.41
2023-01-12T00:50:14.805Z,97958.47
2023-01-12T00:52:41.559Z,97949.88
2023-01-12T00:55:08.709Z,97954.16
2023-01-12T00:57:35.839Z,97956.81
2023-01-12T01:00:02.591Z,97959.97
2023-01-12T01:02:29.680Z,97966.72
2023-01-12T01:04:56.869Z,97949.53
2023-01-12T01:07:24.204Z,97958.31
2023-01-12T01:09:51.260Z,97955.63
2023-01-12T01:12:18.079Z,97949.72
2023-01-12T01:14:46.108Z,97946.28
2023-01-12T01:17:12.930Z,97948.88
2023-01-12T01:19:39.621Z,97947.75
2023-01-12T01:22:06.357Z,97948.78
2023-01-12T01:24:33.051Z,97947.03
2023-01-12T01:26:59.766Z,97955.63
2023-01-12T01:29:26.529Z,97946.28
2023-01-12T01:31:55.347Z,97955.81
2023-01-12T01:34:23.705Z,97958.41
2023-01-12T01:36:50.445Z,97961.94
2023-01-12T01:39:17.158Z,97965.50
2023-01-12T01:41:44.017Z,97960.69
2023-01-12T01:44:29.309Z,97974.66
2023-01-12T01:47:17.168Z,97964.69
2023-01-12T01:49:51.219Z,97964.78
2023-01-12T01:52:34.646Z,97967.25
2023-01-12T01:55:33.969Z,97966.53
2023-01-12T01:58:09.849Z,97957.22
2023-01-12T02:00:40.225Z,97948.72
2023-01-12T02:03:11.024Z,97958.88
2023-01-12T02:05:43.815Z,97961.56
2023-01-12T02:08:32.026Z,97955.66
2023-01-12T02:11:01.905Z,97948.91
2023-01-12T02:13:49.757Z,97951.56
2023-01-12T02:16:25.356Z,97947.41
2023-01-12T02:19:23.597Z,97951.75
2023-01-12T02:22:23.331Z,97943.47
2023-01-12T02:25:33.471Z,97943.66
2023-01-12T02:28:58.157Z,97938.72
2023-01-12T02:31:58.555Z,97942.88
2023-01-12T02:35:21.940Z,97948.88
2023-01-12T02:38:22.108Z,97932.53
2023-01-12T02:41:44.971Z,97931.72
2023-01-12T02:44:30.017Z,97917.31
2023-01-12T02:47:01.392Z,97921.13
2023-01-12T02:49:36.146Z,97923.88
2023-01-12T02:52:12.451Z,97921.56
2023-01-12T02:54:44.459Z,97925.44
2023-01-12T02:57:11.239Z,97921.47
2023-01-12T02:59:43.165Z,97923.22
2023-01-12T03:02:21.101Z,97928.31
2023-01-12T03:04:48.114Z,97922.31
2023-01-12T03:07:14.896Z,97920.53
2023-01-12T03:09:51.684Z,97916.31
2023-01-12T03:12:26.364Z,97926.00
2023-01-12T03:14:55.874Z,97914.66
2023-01-12T03:17:30.995Z,97920.75
2023-01-12T03:20:06.754Z,97910.84
2023-01-12T03:22:37.116Z,97905.88
2023-01-12T03:25:10.976Z,97906.16
2023-01-12T03:27:44.579Z,97904.59
2023-01-12T03:30:27.586Z,97898.00
2023-01-12T03:32:54.745Z,97895.63
2023-01-12T03:35:27.954Z,97893.22
2023-01-12T03:38:07.462Z,97899.94
2023-01-12T03:40:41.662Z,97900.97
2023-01-12T03:43:45.864Z,97892.53
2023-01-12T03:46:25.690Z,97896.06
2023-01-12T03:49:07.332Z,97895.31
2023-01-12T03:51:39.734Z,97885.38
2023-01-12T03:54:11.325Z,97882.09
2023-01-12T03:56:42.193Z,97881.47
2023-01-12T03:59:09.614Z,97878.44
2023-01-12T04:01:37.360Z,97873.41
2023-01-12T04:04:04.490Z,97872.69
2023-01-12T04:06:31.224Z,97867.88
2023-01-12T04:08:57.931Z,97861.22
2023-01-12T04:11:43.211Z,97858.81
2023-01-12T04:14:09.938Z,97851.06
2023-01-12T04:16:36.681Z,97858.81
2023-01-12T04:19:03.444Z,97852.00
2023-01-12T04:21:48.807Z,97853.84
2023-01-12T04:24:15.533Z,97859.19
2023-01-12T04:26:42.299Z,97867.84
2023-01-12T04:29:08.996Z,97865.41
2023-01-12T04:31:35.777Z,97862.09
2023-01-12T04:34:02.515Z,97869.13
2023-01-12T04:36:29.325Z,97859.72
2023-01-12T04:38:56.199Z,97864.13
2023-01-12T04:41:22.952Z,97862.47
2023-01-12T04:43:49.646Z,97854.97
2023-01-12T04:46:16.400Z,97857.63
2023-01-12T04:48:44.169Z,97851.75
2023-01-12T04:51:11.199Z,97847.88
2023-01-12T04:53:40.414Z,97842.94
2023-01-12T04:56:08.186Z,97854.28
2023-01-12T04:58:35.753Z,97841.66
2023-01-12T05:01:10.961Z,97844.38
2023-01-12T05:03:38.357Z,97852.97
2023-01-12T05:06:06.149Z,97851.97
2023-01-12T05:08:51.662Z,97844.13
2023-01-12T05:11:18.726Z,97845.63
2023-01-12T05:13:45.455Z,97851.53
2023-01-12T05:16:15.614Z,97844.47
2023-01-12T05:18:44.915Z,97845.94
2023-01-12T05:21:17.703Z,97846.75
2023-01-12T05:23:45.888Z,97851.84
2023-01-12T05:26:12.896Z,97835.34
2023-01-12T05:28:39.671Z,97842.00
2023-01-12T05:31:13.244Z,97838.50
2023-01-12T05:33:42.921Z,97831.50
2023-01-12T05:36:15.692Z,97829.56
2023-01-12T05:38:42.671Z,97839.78
2023-01-12T05:41:11.733Z,97830.38
2023-01-12T05:43:50.824Z,97824.94
2023-01-12T05:46:24.584Z,97822.28
2023-01-12T05:48:54.583Z,97819.72
2023-01-12T05:51:22.824Z,97818.78
2023-01-12T05:53:49.567Z,97828.19
2023-01-12T05:56:28.306Z,97836.69
2023-01-12T05:58:59.131Z,97828.00
2023-01-12T06:01:27.706Z,97828.75
2023-01-12T06:03:58.846Z,97828.00
2023-01-12T06:06:30.684Z,97828.94
2023-01-12T06:08:59.118Z,97840.59
2023-01-12T06:11:44.394Z,97832.56
2023-01-12T06:14:11.260Z,97831.81
2023-01-12T06:16:42.564Z,97823.16
2023-01-12T06:19:12.788Z,97822.47
2023-01-12T06:21:40.528Z,97809.66
2023-01-12T06:24:07.997Z,97815.19
2023-01-12T06:26:34.872Z,97812.81
2023-01-12T06:29:03.390Z,97816.22
2023-01-12T06:31:30.722Z,97819.72
2023-01-12T06:33:57.816Z,97811.13
2023-01-12T06:36:24.570Z,97804.22
2023-01-12T06:38:51.288Z,97801.53
2023-01-12T06:41:50.188Z,97789.72
2023-01-12T06:44:16.949Z,97803.84
2023-01-12T06:46:43.670Z,97809.91
2023-01-12T06:49:10.684Z,97797.75
2023-01-12T06:51:37.526Z,97794.44
2023-01-12T06:54:04.284Z,97805.50
2023-01-12T06:56:31.192Z,97782.25
2023-01-12T06:58:58.055Z,97797.47
2023-01-12T07:01:26.985Z,97785.03
2023-01-12T07:03:54.256Z,97775.44
2023-01-12T07:06:21.261Z,97780.41
2023-01-12T07:08:47.987Z,97780.41
2023-01-12T07:11:16.671Z,97785.44
2023-01-12T07:13:43.405Z,97770.47
2023-01-12T07:16:10.277Z,97766.13
2023-01-12T07:18:37.270Z,97775.53
2023-01-12T07:21:07.906Z,97771.19
2023-01-12T07:23:35.407Z,97765.84
2023-01-12T07:26:02.124Z,97775.25
2023-01-12T07:28:31.149Z,97767.34
2023-01-12T07:31:03.605Z,97762.91
2023-01-12T07:33:31.028Z,97772.41
2023-01-12T07:35:59.752Z,97773.97
2023-01-12T07:38:28.457Z,97773.88
2023-01-12T07:40:58.243Z,97771.19
2023-01-12T07:43:25.371Z,97764.84
2023-01-12T07:45:52.173Z,97765.00
2023-01-12T07:48:21.085Z,97757.34
2023-01-12T07:50:47.793Z,97760.69
2023-01-12T07:53:14.488Z,97758.09
2023-01-12T07:55:43.606Z,97755.50
2023-01-12T07:58:10.613Z,97755.34
2023-01-12T08:00:37.570Z,97753.31
2023-01-12T08:03:09.603Z,97757.34
2023-01-12T08:05:38.575Z,97752.66
2023-01-12T08:08:06.367Z,97750.50
2023-01-12T08:10:33.130Z,97761.31
2023-01-12T08:12:59.881Z,97740.88
2023-01-12T08:15:32.122Z,97739.31
2023-01-12T08:18:09.967Z,97742.13
2023-01-12T08:20:38.112Z,97753.47
2023-01-12T08:23:19.125Z,97750.63
2023-01-12T08:25:56.117Z,97754.59
2023-01-12T08:28:36.767Z,97747.28
2023-01-12T08:31:04.784Z,97743.09
2023-01-12T08:33:31.585Z,97748.84
2023-01-12T08:35:58.812Z,97745.50
2023-01-12T08:38:25.605Z,97754.38
2023-01-12T08:41:10.935Z,97742.13
2023-01-12T08:43:56.428Z,97752.59
2023-01-12T08:46:23.175Z,97745.44
2023-01-12T08:48:49.871Z,97744.34
2023-01-12T08:51:16.596Z,97738.97
2023-01-12T08:53:43.300Z,97739.88
2023-01-12T08:56:10.144Z,97731.59
2023-01-12T08:58:36.884Z,97734.72
2023-01-12T09:01:12.605Z,97722.31
2023-01-12T09:03:40.616Z,97716.63
2023-01-12T09:06:23.648Z,97719.00
2023-01-12T09:08:59.152Z,97719.72
2023-01-12T09:11:28.775Z,97718.19
2023-01-12T09:13:56.239Z,97719.84
2023-01-12T09:16:23.137Z,97734.53
2023-01-12T09:18:49.902Z,97740.66
2023-01-12T09:21:23.020Z,97736.41
2023-01-12T09:23:50.673Z,97733.31
2023-01-12T09:26:21.296Z,97736.91
2023-01-12T09:28:48.554Z,97731.84
2023-01-12T09:31:19.729Z,97737.63
2023-01-12T09:33:47.143Z,97736.41
2023-01-12T09:36:17.586Z,97748.44
2023-01-12T09:38:46.118Z,97724.91
2023-01-12T09:41:43.632Z,97734.16
2023-01-12T09:44:50.679Z,97735.59
2023-01-12T09:47:40.128Z,97728.75
2023-01-12T09:50:19.605Z,97717.97
2023-01-12T09:53:00.331Z,97722.94
2023-01-12T09:56:02.967Z,97726.13
2023-01-12T09:59:18.622Z,97714.50
2023-01-12T10:01:46.091Z,97724.84
2023-01-12T10:04:13.656Z,97715.53
2023-01-12T10:06:41.317Z,97705.50
2023-01-12T10:09:19.491Z,97711.88
2023-01-12T10:12:14.366Z,97709.69
2023-01-12T10:15:16.730Z,97705.56
2023-01-12T10:18:01.831Z,97710.94
2023-01-12T10:20:44.111Z,97704.53
2023-01-12T10:23:19.243Z,97708.88
2023-01-12T10:25:59.535Z,97690.03
2023-01-12T10:28:35.762Z,97696.66
2023-01-12T10:31:03.925Z,97692.41
2023-01-12T10:33:34.581Z,97699.97
2023-01-12T10:36:19.536Z,97694.38
2023-01-12T10:38:52.152Z,97678.41
2023-01-12T10:41:26.221Z,97688.31
2023-01-12T10:43:58.964Z,97691.63
2023-01-12T10:46:29.671Z,97680.09
2023-01-12T10:49:16.696Z,97675.84
2023-01-12T10:52:00.442Z,97675.53
2023-01-12T10:54:34.183Z,97676.47
2023-01-12T10:57:08.403Z,97666.84
2023-01-12T10:59:39.760Z,97673.69
2023-01-12T11:02:09.352Z,97683.00
2023-01-12T11:04:49.616Z,97678.22
2023-01-12T11:07:29.280Z,97667.13
2023-01-12T11:10:38.608Z,97672.31
2023-01-12T11:13:06.142Z,97674.50
2023-01-12T11:15:38.766Z,97673.47
2023-01-12T11:18:48.468Z,97669.31
2023-01-12T11:21:22.797Z,97661.19
2023-01-12T11:24:10.561Z,97659.09
2023-01-12T11:27:18.463Z,97652.91
2023-01-12T11:30:20.797Z,97638.31
2023-01-12T11:32:59.918Z,97636.97
2023-01-12T11:35:51.396Z,97636.25
2023-01-12T11:38:41.066Z,97625.53
2023-01-12T11:41:23.312Z,97628.31
2023-01-12T11:43:58.970Z,97631.03
2023-01-12T11:46:47.170Z,97623.50
2023-01-12T11:49:42.106Z,97623.19
2023-01-12T11:52:12.145Z,97613.75
2023-01-12T11:54:40.625Z,97615.53
2023-01-12T11:57:25.541Z,97612.47
2023-01-12T12:00:25.686Z,97624.28
2023-01-12T12:03:40.054Z,97613.91
2023-01-12T12:06:39.044Z,97599.97
2023-01-12T12:09:42.451Z,97603.91
2023-01-12T12:12:44.280Z,97588.34
2023-01-12T12:15:55.926Z,97585.44
2023-01-12T12:18:47.709Z,97583.09
2023-01-12T12:21:41.473Z,97576.94
2023-01-12T12:24:34.827Z,97580.97
2023-01-12T12:27:56.619Z,97578.75
2023-01-12T12:30:49.643Z,97568.97
2023-01-12T12:33:37.566Z,97571.09
2023-01-12T12:36:31.790Z,97576.91
2023-01-12T12:39:28.856Z,97576.31
2023-01-12T12:42:48.949Z,97565.72
2023-01-12T12:45:51.081Z,97565.47
2023-01-12T12:48:49.767Z,97562.88
2023-01-12T12:51:17.248Z,97559.59
2023-01-12T12:53:49.688Z,97551.88
2023-01-12T12:56:24.691Z,97552.50
2023-01-12T12:58:56.299Z,97555.34
2023-01-12T13:01:27.134Z,97545.88
2023-01-12T13:04:03.373Z,97554.59
2023-01-12T13:06:38.530Z,97554.16
2023-01-12T13:09:17.052Z,97547.06
2023-01-12T13:12:00.298Z,97551.78
2023-01-12T13:14:33.051Z,97549.56
2023-01-12T13:17:02.008Z,97548.38
2023-01-12T13:19:41.068Z,97546.38
2023-01-12T13:22:35.040Z,97544.16
2023-01-12T13:25:22.982Z,97546.75
2023-01-12T13:27:56.600Z,97536.38
2023-01-12T13:30:40.719Z,97527.03
2023-01-12T13:33:28.122Z,97558.31
2023-01-12T13:36:08.084Z,97538.97
2023-01-12T13:38:52.711Z,97543.34
2023-01-12T13:42:08.957Z,97537.63
2023-01-12T13:44:42.059Z,97529.59
2023-01-12T13:47:25.249Z,97540.72
2023-01-12T13:49:58.752Z,97531.97
2023-01-12T13:52:32.137Z,97545.44
2023-01-12T13:54:59.663Z,97540.72
2023-01-12T13:57:30.293Z,97538.72
2023-01-12T14:00:09.207Z,97529.84
2023-01-12T14:02:41.046Z,97540.13
2023-01-12T14:05:52.882Z,97519.47
2023-01-12T14:08:52.468Z,97533.66
2023-01-12T14:12:04.848Z,97539.78
2023-01-12T14:15:33.043Z,97544.75
2023-01-12T14:18:07.610Z,97542.50
2023-01-12T14:20:46.600Z,97528.91
2023-01-12T14:23:26.523Z,97527.94
2023-01-12T14:26:16.496Z,97520.28
2023-01-12T14:28:46.903Z,97528.50
2023-01-12T14:31:26.258Z,97523.00
2023-01-12T14:33:58.067Z,97527.81
2023-01-12T14:36:31.582Z,97527.81
2023-01-12T14:38:59.978Z,97546.13
2023-01-12T14:41:48.974Z,97524.19
2023-01-12T14:44:44.753Z,97526.16
2023-01-12T14:47:28.172Z,97520.28
2023-01-12T14:49:55.465Z,97532.19
2023-01-12T14:52:33.288Z,97523.94
2023-01-12T14:55:25.197Z,97534.22
2023-01-12T14:58:00.189Z,97531.22
2023-01-12T15:00:31.869Z,97516.81
2023-01-12T15:03:01.488Z,97526.72
2023-01-12T15:05:31.360Z,97533.38
2023-01-12T15:08:07.992Z,97516.38
2023-01-12T15:10:43.287Z,97525.09
2023-01-12T15:13:36.503Z,97515.41
2023-01-12T15:16:24.153Z,97520.38
2023-01-12T15:19:09.421Z,97516.47
2023-01-12T15:21:57.158Z,97533.38
2023-01-12T15:24:45.569Z,97529.81
2023-01-12T15:27:21.428Z,97547.06
2023-01-12T15:29:48.464Z,97534.22
2023-01-12T15:32:41.446Z,97530.31
2023-01-12T15:35:23.495Z,97537.16
2023-01-12T15:37:53.963Z,97528.44
2023-01-12T15:40:22.150Z,97531.97
2023-01-12T15:42:52.934Z,97523.34
2023-01-12T15:45:40.108Z,97529.59
2023-01-12T15:48:07.460Z,97533.53
2023-01-12T15:50:40.653Z,97527.75
2023-01-12T15:53:22.477Z,97528.56
2023-01-12T15:55:49.551Z,97521.84
2023-01-12T15:58:16.948Z,97523.50
2023-01-12T16:00:45.089Z,97528.91
2023-01-12T16:03:28.944Z,97525.59
2023-01-12T16:05:59.003Z,97525.72
2023-01-12T16:08:25.729Z,97522.03
2023-01-12T16:11:11.575Z,97535.41
2023-01-12T16:13:38.915Z,97533.28
2023-01-12T16:16:06.865Z,97540.81
2023-01-12T16:18:34.431Z,97537.38
2023-01-12T16:21:02.185Z,97550.16
2023-01-12T16:23:31.495Z,97551.44
2023-01-12T16:26:00.367Z,97543.78
2023-01-12T16:28:29.113Z,97541.56
2023-01-12T16:30:56.736Z,97534.09
2023-01-12T16:33:23.766Z,97538.84
2023-01-12T16:35:54.744Z,97531.28
2023-01-12T16:38:21.446Z,97531.28
2023-01-12T16:40:50.518Z,97530.59
2023-01-12T16:43:20.921Z,97533.75
2023-01-12T16:45:47.850Z,97531.28
2023-01-12T16:48:14.593Z,97520.66
2023-01-12T16:50:42.841Z,97529.28
2023-01-12T16:53:12.076Z,97520.53
2023-01-12T16:55:39.235Z,97530.34
2023-01-12T16:58:06.581Z,97525.22
2023-01-12T17:00:35.602Z,97525.84
2023-01-12T17:03:03.263Z,97513.81
2023-01-12T17:05:31.359Z,97517.47
2023-01-12T17:07:58.205Z,97517.69
2023-01-12T17:10:25.022Z,97508.38
2023-01-12T17:12:57.892Z,97509.56
2023-01-12T17:15:27.998Z,97504.63
2023-01-12T17:17:56.208Z,97508.25
2023-01-12T17:20:23.165Z,97511.22
2023-01-12T17:22:50.753Z,97521.25
2023-01-12T17:25:17.775Z,97510.03
2023-01-12T17:27:44.718Z,97514.97
2023-01-12T17:30:11.919Z,97512.13
2023-01-12T17:32:39.353Z,97512.72
2023-01-12T17:35:09.249Z,97509.75
2023-01-12T17:37:36.332Z,97516.94
2023-01-12T17:40:04.093Z,97505.97
2023-01-12T17:43:07.749Z,97508.69
2023-01-12T17:45:42.387Z,97506.31
2023-01-12T17:48:11.890Z,97504.78
2023-01-12T17:50:40.414Z,97504.19
2023-01-12T17:53:09.267Z,97504.19
2023-01-12T17:55:47.448Z,97503.38
2023-01-12T17:58:18.294Z,97502.53
2023-01-12T18:00:45.182Z,97500.75
2023-01-12T18:03:11.955Z,97500.06
2023-01-12T18:05:39.561Z,97499.22
2023-01-12T18:08:06.435Z,97502.66
2023-01-12T18:10:33.200Z,97497.47
2023-01-12T18:12:59.908Z,97504.31
2023-01-12T18:15:28.728Z,97501.72
2023-01-12T18:17:55.500Z,97504.31
2023-01-12T18:20:22.445Z,97493.22
2023-01-12T18:22:49.924Z,97481.91
2023-01-12T18:25:16.674Z,97484.63
2023-01-12T18:27:45.375Z,97489.69
2023-01-12T18:30:12.595Z,97481.19
2023-01-12T18:32:39.627Z,97476.94
2023-01-12T18:35:06.742Z,97470.69
2023-01-12T18:37:33.442Z,97468.22
2023-01-12T18:40:00.159Z,97461.25
2023-01-12T18:42:45.254Z,97465.63
2023-01-12T18:45:11.985Z,97461.25
2023-01-12T18:47:56.998Z,97458.66
2023-01-12T18:50:42.375Z,97459.13
2023-01-12T18:53:30.248Z,97459.97
2023-01-12T18:55:58.068Z,97454.78
2023-01-12T18:58:28.672Z,97454.78
2023-01-12T19:01:03.323Z,97463.25
2023-01-12T19:03:30.343Z,97454.53
2023-01-12T19:06:02.471Z,97457.75
2023-01-12T19:08:48.774Z,97455.16
2023-01-12T19:11:16.381Z,97464.59
2023-01-12T19:14:01.744Z,97446.41
2023-01-12T19:16:47.525Z,97453.38
2023-01-12T19:19:14.398Z,97442.03
2023-01-12T19:21:59.764Z,97451.34
2023-01-12T19:24:45.131Z,97438.50
2023-01-12T19:27:31.746Z,97454.06
2023-01-12T19:29:58.751Z,97442.75
2023-01-12T19:32:25.460Z,97433.91
2023-01-12T19:34:56.520Z,97440.50
2023-01-12T19:37:29.424Z,97437.69
2023-01-12T19:40:01.412Z,97428.00
2023-01-12T19:42:50.088Z,97428.59
2023-01-12T19:45:17.592Z,97432.84
2023-01-12T19:47:44.335Z,97443.47
2023-01-12T19:50:13.583Z,97426.09
2023-01-12T19:52:42.988Z,97436.38
2023-01-12T19:55:13.967Z,97426.22
2023-01-12T19:57:42.927Z,97434.22
2023-01-12T20:00:15.068Z,97429.97
2023-01-12T20:02:44.373Z,97438.59
2023-01-12T20:05:13.637Z,97424.53
2023-01-12T20:07:40.652Z,97431.63
2023-01-12T20:10:08.848Z,97426.66
2023-01-12T20:12:35.550Z,97419.34
2023-01-12T20:15:03.360Z,97421.50
2023-01-12T20:17:30.117Z,97421.00
2023-01-12T20:19:56.852Z,97420.53
2023-01-12T20:22:23.735Z,97416.53
2023-01-12T20:24:50.489Z,97419.34
2023-01-12T20:27:17.315Z,97417.25
2023-01-12T20:29:44.075Z,97409.44
2023-01-12T20:32:10.805Z,97406.16
2023-01-12T20:34:37.559Z,97406.16
2023-01-12T20:37:04.301Z,97409.44
2023-01-12T20:39:31.057Z,97407.78
2023-01-12T20:41:57.859Z,97401.03
2023-01-12T20:44:24.706Z,97403.53
2023-01-12T20:46:51.525Z,97400.00
2023-01-12T20:49:18.334Z,97404.25
2023-01-12T20:51:45.679Z,97390.09
2023-01-12T20:54:12.419Z,97390.19
2023-01-12T20:56:39.264Z,97404.13
2023-01-12T20:59:06.267Z,97388.53
2023-01-12T21:01:33.373Z,97392.09
2023-01-12T21:04:00.716Z,97388.06
2023-01-12T21:06:27.480Z,97384.06
2023-01-12T21:08:54.211Z,97380.88
2023-01-12T21:11:21.296Z,97380.16
2023-01-12T21:13:48.233Z,97376.72
2023-01-12T21:16:19.043Z,97379.59
2023-01-12T21:18:46.710Z,97369.19
2023-01-12T21:21:13.541Z,97363.28
2023-01-12T21:23:40.370Z,97353.00
2023-01-12T21:26:08.704Z,97359.75
2023-01-12T21:28:38.924Z,97351.97
2023-01-12T21:31:08.463Z,97355.25
2023-01-12T21:33:35.727Z,97351.34
2023-01-12T21:36:02.615Z,97356.81
2023-01-12T21:38:29.713Z,97362.81
2023-01-12T21:41:03.005Z,97349.94
2023-01-12T21:43:30.064Z,97366.25
2023-01-12T21:46:03.843Z,97358.94
2023-01-12T21:48:31.100Z,97352.19
2023-01-12T21:51:07.474Z,97339.09
2023-01-12T21:53:35.122Z,97338.63
2023-01-12T21:56:04.701Z,97348.28
2023-01-12T21:58:35.163Z,97354.69
2023-01-12T22:01:09.992Z,97347.00
2023-01-12T22:03:37.659Z,97335.06
2023-01-12T22:06:08.711Z,97345.13
2023-01-12T22:08:38.030Z,97340.97
2023-01-12T22:11:15.599Z,97348.75
2023-01-12T22:13:46.327Z,97351.34
2023-01-12T22:16:15.169Z,97343.81
2023-01-12T22:18:50.090Z,97352.53
2023-01-12T22:21:19.764Z,97356.81
2023-01-12T22:23:47.138Z,97356.81
2023-01-12T22:26:15.760Z,97355.03
2023-01-12T22:28:45.278Z,97349.84
2023-01-12T22:31:22.507Z,97349.94
2023-01-12T22:33:56.598Z,97353.25
2023-01-12T22:36:23.359Z,97348.19
2023-01-12T22:38:50.427Z,97342.63
2023-01-12T22:41:21.686Z,97339.53
2023-01-12T22:43:49.399Z,97330.84
2023-01-12T22:46:26.206Z,97340.75
2023-01-12T22:48:56.537Z,97324.44
2023-01-12T22:51:26.648Z,97328.72
2023-01-12T22:53:55.414Z,97320.91
2023-01-12T22:56:22.755Z,97320.78
2023-01-12T22:58:55.440Z,97321.84
2023-01-12T23:01:25.347Z,97313.94
2023-01-12T23:03:57.039Z,97319.16
2023-01-12T23:06:25.590Z,97320.91
2023-01-12T23:08:52.734Z,97314.78
2023-01-12T23:11:25.722Z,97309.31
2023-01-12T23:13:57.076Z,97307.69
2023-01-12T23:16:25.005Z,97316.16
2023-01-12T23:18:51.860Z,97315.13
2023-01-12T23:21:26.277Z,97312.16
2023-01-12T23:23:59.063Z,97301.75
2023-01-12T23:26:32.257Z,97297.94
2023-01-12T23:29:02.646Z,97301.50
2023-01-12T23:31:33.069Z,97311.06
2023-01-12T23:33:59.877Z,97303.28
2023-01-12T23:36:29.148Z,97302.56
2023-01-12T23:39:00.588Z,97286.84
2023-01-12T23:41:33.343Z,97291.34
2023-01-12T23:44:02.780Z,97285.59
2023-01-12T23:46:33.917Z,97288.28
2023-01-12T23:49:01.186Z,97280.63
2023-01-12T23:51:29.272Z,97287.47
2023-01-12T23:53:59.762Z,97277.28
2023-01-12T23:56:33.031Z,97275.78
2023-01-12T23:59:00.027Z,97284.00
